Sunday, November 19, 2017, 4:59 AM GMT
Back to Local

CYYY, Mont Joli, Que.

Location: , , Canada Lat: 48.6
Local Time: 4:59 AM GMT ( 4:59 GMT) Lon: -68.217
Time Zone: GMT Elev: 157 ft

Show me the last for .
Show Decoded

2017-11-19 04:00 METAR CYYY 190400Z 09005KT 15SM FEW040 OVC100 M04/M06 A2965 RMK SC2AC6 SLP045 =
2017-11-19 03:00 METAR CYYY 190300Z 08004KT 15SM FEW040 OVC095 M03/M06 A2967 RMK SC2AC6 SLP053 =
2017-11-19 02:00 METAR CYYY 190200Z 13003KT 070V140 15SM FEW040 OVC095 M03/M06 A2969 RMK SC2AC6
                 SLP058 =
2017-11-19 01:00 METAR CYYY 190100Z 10007KT 15SM OVC095 M04/M06 A2972 RMK AC8 SLP070 =
2017-11-19 00:00 METAR CYYY 190000Z 16003KT 15SM OVC095 M04/M06 A2977 RMK AC8 SLP086 =
2017-11-18 23:00 METAR CYYY 182300Z 10006KT 30SM FEW015 SCT100 OVC120 M05/M06 A2974 RMK SC2AC2AC4
                 PRESFR SLP076 =
2017-11-18 22:00 METAR CYYY 182200Z 18003KT 30SM OVC110 M04/M07 A2976 RMK AC8 SLP084 =
2017-11-18 21:00 METAR CYYY 182100Z 19004KT 30SM FEW020 OVC110 M04/M07 A2978 RMK SC1AC8 SC TR
                 SLP090 =
2017-11-18 20:00 METAR CYYY 182000Z 22003KT 180V250 30SM FEW016 OVC130 M04/M08 A2977 RMK SC1AC7
                 SLP087 =
2017-11-18 19:00 METAR CYYY 181900Z 25007KT 30SM FEW016 OVC120 M04/M08 A2978 RMK SC2AC6 SLP091 =
2017-11-18 18:00 METAR CYYY 181800Z 25005KT 30SM SCT016 OVC120 M04/M08 A2980 RMK SC3AC5 SLP095 =
2017-11-18 17:00 METAR CYYY 181700Z 26009KT 30SM BKN016 OVC130 M04/M08 A2981 RMK SC6AC2 SLP100 =
2017-11-18 16:00 METAR CYYY 181600Z 24010G17KT 30SM BKN015 M05/M08 A2983 RMK SC7 SLP107 =
2017-11-18 15:00 METAR CYYY 181500Z 26011KT 30SM BKN017 M05/M09 A2986 RMK SC7 SLP117 =
2017-11-18 14:00 METAR CYYY 181400Z 27008KT 30SM OVC017 M05/M08 A2987 RMK SC8 SLP121 =
2017-11-18 13:00 METAR CYYY 181300Z 29011KT 30SM BKN020 M05/M09 A2986 RMK SC6 SLP118 =
2017-11-18 12:00 METAR CYYY 181200Z 30011KT 30SM BKN020 M06/M09 A2986 RMK SC6 SLP116 =
2017-11-18 11:00 METAR CYYY 181100Z 29012KT 15SM BKN025 M06/M09 A2983 RMK SC7 SLP108 =
2017-11-18 10:00 METAR CYYY 181000Z 28013G19KT 15SM OVC020 M05/M09 A2983 RMK SC8 SLP108 =
2017-11-18 09:00 METAR CYYY 180900Z 30016G22KT 15SM OVC022 M06/M10 A2982 RMK SC8 SLP103 =
2017-11-18 08:00 METAR CYYY 180800Z 28013G20KT 15SM OVC020 M06/M09 A2982 RMK SC8 SLP104 =
2017-11-18 07:00 METAR CYYY 180700Z 30014KT 15SM OVC024 M05/M09 A2981 RMK SC8 SLP100 =
2017-11-18 06:00 METAR CYYY 180600Z 29014KT 15SM OVC023 M05/M09 A2980 RMK SC8 SLP094 =
2017-11-18 05:00 METAR CYYY 180500Z 32016KT 15SM OVC025 M05/M09 A2980 RMK SC8 SLP094 =

Support USWX by starting your Amazon purchase here.